sensor_id;sensor_type;location;lat;lon;timestamp;temperature;humidity
34768;DHT22;21755;43.608;1.236;2023-04-01T00:00:47;11.00;99.90
34768;DHT22;21755;43.608;1.236;2023-04-01T00:03:13;11.00;99.90
34768;DHT22;21755;43.608;1.236;2023-04-01T00:05:38;11.00;99.90
34768;DHT22;21755;43.608;1.236;2023-04-01T00:08:04;10.90;99.90
34768;DHT22;21755;43.608;1.236;2023-04-01T00:10:30;10.90;99.90
34768;DHT22;21755;43.608;1.236;2023-04-01T00:12:56;10.90;99.90
34768;DHT22;21755;43.608;1.236;2023-04-01T00:15:22;10.90;99.90
34768;DHT22;21755;43.608;1.236;2023-04-01T00:17:47;10.90;99.90
34768;DHT22;21755;43.608;1.236;2023-04-01T00:20:13;10.90;99.90
34768;DHT22;21755;43.608;1.236;2023-04-01T00:22:40;10.80;99.90
34768;DHT22;21755;43.608;1.236;2023-04-01T00:25:06;10.90;99.90
34768;DHT22;21755;43.608;1.236;2023-04-01T00:27:32;10.90;99.90
34768;DHT22;21755;43.608;1.236;2023-04-01T00:29:57;10.80;99.90
34768;DHT22;21755;43.608;1.236;2023-04-01T00:32:23;10.80;99.90
34768;DHT22;21755;43.608;1.236;2023-04-01T00:34:51;10.80;99.90
34768;DHT22;21755;43.608;1.236;2023-04-01T00:37:18;10.80;99.90
34768;DHT22;21755;43.608;1.236;2023-04-01T00:39:44;10.80;99.90
34768;DHT22;21755;43.608;1.236;2023-04-01T00:42:10;10.80;99.90
34768;DHT22;21755;43.608;1.236;2023-04-01T00:44:36;10.70;99.90
34768;DHT22;21755;43.608;1.236;2023-04-01T00:47:02;10.70;99.90
34768;DHT22;21755;43.608;1.236;2023-04-01T00:49:38;10.70;99.90
34768;DHT22;21755;43.608;1.236;2023-04-01T00:52:05;10.70;99.90
34768;DHT22;21755;43.608;1.236;2023-04-01T00:54:32;10.60;99.90
34768;DHT22;21755;43.608;1.236;2023-04-01T00:57:03;10.60;99.90
34768;DHT22;21755;43.608;1.236;2023-04-01T00:59:35;10.60;99.90
34768;DHT22;21755;43.608;1.236;2023-04-01T01:02:03;10.60;99.90
34768;DHT22;21755;43.608;1.236;2023-04-01T01:04:30;10.60;99.90
34768;DHT22;21755;43.608;1.236;2023-04-01T01:06:58;10.60;99.90
34768;DHT22;21755;43.608;1.236;2023-04-01T01:09:37;10.50;99.90
34768;DHT22;21755;43.608;1.236;2023-04-01T01:14:39;10.60;99.90
34768;DHT22;21755;43.608;1.236;2023-04-01T01:19:47;10.50;99.90
34768;DHT22;21755;43.608;1.236;2023-04-01T01:24:58;10.60;99.90
34768;DHT22;21755;43.608;1.236;2023-04-01T01:27:29;10.60;99.90
34768;DHT22;21755;43.608;1.236;2023-04-01T01:30:12;10.60;99.90
34768;DHT22;21755;43.608;1.236;2023-04-01T01:35:20;10.60;99.90
34768;DHT22;21755;43.608;1.236;2023-04-01T01:37:46;10.70;99.90
34768;DHT22;21755;43.608;1.236;2023-04-01T01:40:13;10.60;99.90
34768;DHT22;21755;43.608;1.236;2023-04-01T01:42:41;10.60;99.90
34768;DHT22;21755;43.608;1.236;2023-04-01T01:45:08;10.60;99.90
34768;DHT22;21755;43.608;1.236;2023-04-01T01:47:35;10.70;99.90
34768;DHT22;21755;43.608;1.236;2023-04-01T01:50:01;10.70;99.90
34768;DHT22;21755;43.608;1.236;2023-04-01T01:52:28;10.70;99.90
34768;DHT22;21755;43.608;1.236;2023-04-01T01:54:55;10.70;99.90
34768;DHT22;21755;43.608;1.236;2023-04-01T01:57:28;10.70;99.90
34768;DHT22;21755;43.608;1.236;2023-04-01T01:59:56;10.80;99.90
34768;DHT22;21755;43.608;1.236;2023-04-01T02:02:23;10.80;99.90
34768;DHT22;21755;43.608;1.236;2023-04-01T02:04:51;10.80;99.90
34768;DHT22;21755;43.608;1.236;2023-04-01T02:07:25;10.80;99.90
34768;DHT22;21755;43.608;1.236;2023-04-01T02:09:52;10.80;99.90
34768;DHT22;21755;43.608;1.236;2023-04-01T02:12:18;10.70;99.90
34768;DHT22;21755;43.608;1.236;2023-04-01T02:14:56;10.70;99.90
34768;DHT22;21755;43.608;1.236;2023-04-01T02:17:24;10.70;99.90
34768;DHT22;21755;43.608;1.236;2023-04-01T02:19:52;10.60;99.90
34768;DHT22;21755;43.608;1.236;2023-04-01T02:22:20;10.60;99.90
34768;DHT22;21755;43.608;1.236;2023-04-01T02:24:47;10.60;99.90
34768;DHT22;21755;43.608;1.236;2023-04-01T02:27:13;10.60;99.90
34768;DHT22;21755;43.608;1.236;2023-04-01T02:29:39;10.60;99.90
34768;DHT22;21755;43.608;1.236;2023-04-01T02:32:05;10.50;99.90
34768;DHT22;21755;43.608;1.236;2023-04-01T02:34:31;10.50;99.90
34768;DHT22;21755;43.608;1.236;2023-04-01T02:36:58;10.50;99.90
34768;DHT22;21755;43.608;1.236;2023-04-01T02:39:24;10.50;99.90
34768;DHT22;21755;43.608;1.236;2023-04-01T02:41:51;10.40;99.90
34768;DHT22;21755;43.608;1.236;2023-04-01T02:44:18;10.40;99.90
34768;DHT22;21755;43.608;1.236;2023-04-01T02:46:43;10.40;99.90
34768;DHT22;21755;43.608;1.236;2023-04-01T02:49:09;10.40;99.90
34768;DHT22;21755;43.608;1.236;2023-04-01T02:51:35;10.40;99.90
34768;DHT22;21755;43.608;1.236;2023-04-01T02:54:01;10.30;99.90
34768;DHT22;21755;43.608;1.236;2023-04-01T02:56:26;10.30;99.90
34768;DHT22;21755;43.608;1.236;2023-04-01T02:58:52;10.30;99.90
34768;DHT22;21755;43.608;1.236;2023-04-01T03:01:18;10.30;99.90
34768;DHT22;21755;43.608;1.236;2023-04-01T03:03:44;10.30;99.90
34768;DHT22;21755;43.608;1.236;2023-04-01T03:06:11;10.20;99.90
34768;DHT22;21755;43.608;1.236;2023-04-01T03:08:37;10.20;99.90
34768;DHT22;21755;43.608;1.236;2023-04-01T03:11:03;10.20;99.90
34768;DHT22;21755;43.608;1.236;2023-04-01T03:13:29;10.20;99.90
34768;DHT22;21755;43.608;1.236;2023-04-01T03:15:54;10.20;99.90
34768;DHT22;21755;43.608;1.236;2023-04-01T03:18:20;10.10;99.90
34768;DHT22;21755;43.608;1.236;2023-04-01T03:20:46;10.10;99.90
34768;DHT22;21755;43.608;1.236;2023-04-01T03:23:11;10.10;99.90
34768;DHT22;21755;43.608;1.236;2023-04-01T03:25:37;10.10;99.90
34768;DHT22;21755;43.608;1.236;2023-04-01T03:28:03;10.10;99.90
34768;DHT22;21755;43.608;1.236;2023-04-01T03:30:29;10.10;99.90
34768;DHT22;21755;43.608;1.236;2023-04-01T03:32:59;10.10;99.90
34768;DHT22;21755;43.608;1.236;2023-04-01T03:35:26;10.10;99.90
34768;DHT22;21755;43.608;1.236;2023-04-01T03:37:52;10.10;99.90
34768;DHT22;21755;43.608;1.236;2023-04-01T03:40:18;10.10;99.90
34768;DHT22;21755;43.608;1.236;2023-04-01T03:42:43;10.10;99.90
34768;DHT22;21755;43.608;1.236;2023-04-01T03:45:09;10.10;99.90
34768;DHT22;21755;43.608;1.236;2023-04-01T03:47:37;10.20;99.90
34768;DHT22;21755;43.608;1.236;2023-04-01T03:50:03;10.20;99.90
34768;DHT22;21755;43.608;1.236;2023-04-01T03:52:29;10.20;99.90
34768;DHT22;21755;43.608;1.236;2023-04-01T03:54:55;10.20;99.90
34768;DHT22;21755;43.608;1.236;2023-04-01T03:57:21;10.20;99.90
34768;DHT22;21755;43.608;1.236;2023-04-01T03:59:47;10.20;99.90
34768;DHT22;21755;43.608;1.236;2023-04-01T04:02:12;10.20;99.90
34768;DHT22;21755;43.608;1.236;2023-04-01T04:04:38;10.20;99.90
34768;DHT22;21755;43.608;1.236;2023-04-01T04:07:04;10.20;99.90
34768;DHT22;21755;43.608;1.236;2023-04-01T04:09:30;10.20;99.90
34768;DHT22;21755;43.608;1.236;2023-04-01T04:11:56;10.20;99.90
34768;DHT22;21755;43.608;1.236;2023-04-01T04:14:22;10.20;99.90
34768;DHT22;21755;43.608;1.236;2023-04-01T04:16:48;10.30;99.90
34768;DHT22;21755;43.608;1.236;2023-04-01T04:19:13;10.30;99.90
34768;DHT22;21755;43.608;1.236;2023-04-01T04:21:40;10.30;99.90
34768;DHT22;21755;43.608;1.236;2023-04-01T04:24:06;10.30;99.90
34768;DHT22;21755;43.608;1.236;2023-04-01T04:26:31;10.30;99.90
34768;DHT22;21755;43.608;1.236;2023-04-01T04:28:57;10.30;99.90
34768;DHT22;21755;43.608;1.236;2023-04-01T04:31:23;10.30;99.90
34768;DHT22;21755;43.608;1.236;2023-04-01T04:33:50;10.30;99.90
34768;DHT22;21755;43.608;1.236;2023-04-01T04:36:16;10.30;99.90
34768;DHT22;21755;43.608;1.236;2023-04-01T04:38:42;10.30;99.90
34768;DHT22;21755;43.608;1.236;2023-04-01T04:41:11;10.20;99.90
34768;DHT22;21755;43.608;1.236;2023-04-01T04:43:38;10.30;99.90
34768;DHT22;21755;43.608;1.236;2023-04-01T04:46:05;10.30;99.90
34768;DHT22;21755;43.608;1.236;2023-04-01T04:48:31;10.30;99.90
34768;DHT22;21755;43.608;1.236;2023-04-01T04:50:57;10.30;99.90
34768;DHT22;21755;43.608;1.236;2023-04-01T04:53:22;10.30;99.90
34768;DHT22;21755;43.608;1.236;2023-04-01T04:55:49;10.30;99.90
34768;DHT22;21755;43.608;1.236;2023-04-01T04:58:15;10.30;99.90
34768;DHT22;21755;43.608;1.236;2023-04-01T05:00:41;10.30;99.90
34768;DHT22;21755;43.608;1.236;2023-04-01T05:03:07;10.20;99.90
34768;DHT22;21755;43.608;1.236;2023-04-01T05:05:34;10.20;99.90
34768;DHT22;21755;43.608;1.236;2023-04-01T05:07:59;10.20;99.90
34768;DHT22;21755;43.608;1.236;2023-04-01T05:10:25;10.20;99.90
34768;DHT22;21755;43.608;1.236;2023-04-01T05:12:51;10.20;99.90
34768;DHT22;21755;43.608;1.236;2023-04-01T05:15:16;10.20;99.90
34768;DHT22;21755;43.608;1.236;2023-04-01T05:17:42;10.20;99.90
34768;DHT22;21755;43.608;1.236;2023-04-01T05:20:08;10.20;99.90
34768;DHT22;21755;43.608;1.236;2023-04-01T05:22:33;10.20;99.90
34768;DHT22;21755;43.608;1.236;2023-04-01T05:24:59;10.20;99.90
34768;DHT22;21755;43.608;1.236;2023-04-01T05:27:25;10.20;99.90
34768;DHT22;21755;43.608;1.236;2023-04-01T05:29:50;10.20;99.90
34768;DHT22;21755;43.608;1.236;2023-04-01T05:32:16;10.20;99.90
34768;DHT22;21755;43.608;1.236;2023-04-01T05:34:42;10.10;99.90
34768;DHT22;21755;43.608;1.236;2023-04-01T05:37:08;10.10;99.90
34768;DHT22;21755;43.608;1.236;2023-04-01T05:39:37;10.20;99.90
34768;DHT22;21755;43.608;1.236;2023-04-01T05:42:03;10.10;99.90
34768;DHT22;21755;43.608;1.236;2023-04-01T05:44:30;10.10;99.90
34768;DHT22;21755;43.608;1.236;2023-04-01T05:46:56;10.10;99.90
34768;DHT22;21755;43.608;1.236;2023-04-01T05:49:21;10.20;99.90
34768;DHT22;21755;43.608;1.236;2023-04-01T05:51:47;10.20;99.90
34768;DHT22;21755;43.608;1.236;2023-04-01T05:54:13;10.20;99.90
34768;DHT22;21755;43.608;1.236;2023-04-01T05:56:38;10.30;99.90
34768;DHT22;21755;43.608;1.236;2023-04-01T05:59:04;10.30;99.90
34768;DHT22;21755;43.608;1.236;2023-04-01T06:01:30;10.30;99.90
34768;DHT22;21755;43.608;1.236;2023-04-01T06:03:56;10.40;99.90
34768;DHT22;21755;43.608;1.236;2023-04-01T06:06:23;10.40;99.90
34768;DHT22;21755;43.608;1.236;2023-04-01T06:08:49;10.40;99.90
34768;DHT22;21755;43.608;1.236;2023-04-01T06:17:03;10.50;99.90
34768;DHT22;21755;43.608;1.236;2023-04-01T06:39:42;10.70;99.90
34768;DHT22;21755;43.608;1.236;2023-04-01T06:47:27;10.80;99.90
34768;DHT22;21755;43.608;1.236;2023-04-01T06:50:00;10.80;99.90
34768;DHT22;21755;43.608;1.236;2023-04-01T06:55:21;10.90;99.90
34768;DHT22;21755;43.608;1.236;2023-04-01T06:57:50;11.00;99.90
34768;DHT22;21755;43.608;1.236;2023-04-01T07:03:08;11.00;99.90
34768;DHT22;21755;43.608;1.236;2023-04-01T07:05:33;11.10;99.90
34768;DHT22;21755;43.608;1.236;2023-04-01T07:08:00;11.10;99.90
34768;DHT22;21755;43.608;1.236;2023-04-01T07:18:36;11.20;99.90
34768;DHT22;21755;43.608;1.236;2023-04-01T07:21:04;11.20;99.90
34768;DHT22;21755;43.608;1.236;2023-04-01T07:23:36;11.30;99.90
34768;DHT22;21755;43.608;1.236;2023-04-01T07:26:06;11.30;99.90
34768;DHT22;21755;43.608;1.236;2023-04-01T07:28:33;11.30;99.90
34768;DHT22;21755;43.608;1.236;2023-04-01T07:31:08;11.30;99.90
34768;DHT22;21755;43.608;1.236;2023-04-01T07:47:54;12.00;99.90
34768;DHT22;21755;43.608;1.236;2023-04-01T07:55:10;12.20;99.90
34768;DHT22;21755;43.608;1.236;2023-04-01T07:57:43;12.30;99.90
34768;DHT22;21755;43.608;1.236;2023-04-01T08:08:56;12.70;99.90
34768;DHT22;21755;43.608;1.236;2023-04-01T08:13:53;13.10;99.90
34768;DHT22;21755;43.608;1.236;2023-04-01T08:21:44;13.40;99.90
34768;DHT22;21755;43.608;1.236;2023-04-01T08:24:22;13.30;99.90
34768;DHT22;21755;43.608;1.236;2023-04-01T08:26:49;13.70;99.90
34768;DHT22;21755;43.608;1.236;2023-04-01T08:29:21;13.60;99.90
34768;DHT22;21755;43.608;1.236;2023-04-01T08:34:25;13.70;99.90
34768;DHT22;21755;43.608;1.236;2023-04-01T08:36:59;13.60;99.90
34768;DHT22;21755;43.608;1.236;2023-04-01T08:52:22;13.60;99.90
34768;DHT22;21755;43.608;1.236;2023-04-01T08:55:02;13.80;99.90
34768;DHT22;21755;43.608;1.236;2023-04-01T08:57:42;13.80;99.90
34768;DHT22;21755;43.608;1.236;2023-04-01T09:02:55;13.80;99.90
34768;DHT22;21755;43.608;1.236;2023-04-01T09:05:42;13.90;99.90
34768;DHT22;21755;43.608;1.236;2023-04-01T09:16:29;14.40;99.90
34768;DHT22;21755;43.608;1.236;2023-04-01T09:19:04;14.20;99.90
34768;DHT22;21755;43.608;1.236;2023-04-01T09:21:45;14.00;99.90
34768;DHT22;21755;43.608;1.236;2023-04-01T09:31:42;13.80;99.90
34768;DHT22;21755;43.608;1.236;2023-04-01T09:36:59;14.20;99.90
34768;DHT22;21755;43.608;1.236;2023-04-01T09:44:23;14.60;99.90
34768;DHT22;21755;43.608;1.236;2023-04-01T10:08:24;15.20;99.90
34768;DHT22;21755;43.608;1.236;2023-04-01T10:11:02;15.00;99.90
34768;DHT22;21755;43.608;1.236;2023-04-01T10:19:03;15.50;99.90
34768;DHT22;21755;43.608;1.236;2023-04-01T10:47:51;15.40;99.90
34768;DHT22;21755;43.608;1.236;2023-04-01T11:05:36;13.80;99.90
34768;DHT22;21755;43.608;1.236;2023-04-01T11:13:08;13.80;99.90
34768;DHT22;21755;43.608;1.236;2023-04-01T11:15:49;13.50;99.90
34768;DHT22;21755;43.608;1.236;2023-04-01T11:18:36;13.50;99.90
34768;DHT22;21755;43.608;1.236;2023-04-01T11:21:23;13.30;99.90
34768;DHT22;21755;43.608;1.236;2023-04-01T11:29:30;13.40;99.90
34768;DHT22;21755;43.608;1.236;2023-04-01T11:32:04;13.50;99.90
34768;DHT22;21755;43.608;1.236;2023-04-01T11:34:39;13.60;99.90
34768;DHT22;21755;43.608;1.236;2023-04-01T11:42:28;13.50;99.90
34768;DHT22;21755;43.608;1.236;2023-04-01T11:52:47;14.30;99.90
34768;DHT22;21755;43.608;1.236;2023-04-01T12:00:23;14.50;99.90
34768;DHT22;21755;43.608;1.236;2023-04-01T12:13:55;14.30;99.90
34768;DHT22;21755;43.608;1.236;2023-04-01T12:26:59;14.00;99.90
34768;DHT22;21755;43.608;1.236;2023-04-01T12:32:16;13.80;99.90
34768;DHT22;21755;43.608;1.236;2023-04-01T12:40:05;13.60;99.90
34768;DHT22;21755;43.608;1.236;2023-04-01T13:00:38;12.70;99.90
34768;DHT22;21755;43.608;1.236;2023-04-01T13:03:10;11.70;99.90
34768;DHT22;21755;43.608;1.236;2023-04-01T13:08:09;10.90;99.90
34768;DHT22;21755;43.608;1.236;2023-04-01T13:10:41;10.80;99.90
34768;DHT22;21755;43.608;1.236;2023-04-01T13:15:40;10.70;99.90
34768;DHT22;21755;43.608;1.236;2023-04-01T13:20:50;11.00;99.90
34768;DHT22;21755;43.608;1.236;2023-04-01T13:23:32;11.20;99.90
34768;DHT22;21755;43.608;1.236;2023-04-01T13:28:56;11.30;99.90
34768;DHT22;21755;43.608;1.236;2023-04-01T13:31:32;11.40;99.90
34768;DHT22;21755;43.608;1.236;2023-04-01T13:34:08;11.70;99.90
34768;DHT22;21755;43.608;1.236;2023-04-01T13:39:11;11.70;99.90
34768;DHT22;21755;43.608;1.236;2023-04-01T13:42:05;11.70;99.90
34768;DHT22;21755;43.608;1.236;2023-04-01T13:52:12;11.30;99.90
34768;DHT22;21755;43.608;1.236;2023-04-01T13:54:50;11.30;99.90
34768;DHT22;21755;43.608;1.236;2023-04-01T14:02:50;11.50;99.90
34768;DHT22;21755;43.608;1.236;2023-04-01T14:10:25;11.50;99.90
34768;DHT22;21755;43.608;1.236;2023-04-01T14:20:45;11.30;99.90
34768;DHT22;21755;43.608;1.236;2023-04-01T14:26:03;11.00;99.90
34768;DHT22;21755;43.608;1.236;2023-04-01T14:44:30;10.40;99.90
34768;DHT22;21755;43.608;1.236;2023-04-01T14:49:42;10.30;99.90
34768;DHT22;21755;43.608;1.236;2023-04-01T14:52:14;9.30;99.90
34768;DHT22;21755;43.608;1.236;2023-04-01T14:54:41;8.70;99.90
34768;DHT22;21755;43.608;1.236;2023-04-01T14:59:41;8.50;99.90
34768;DHT22;21755;43.608;1.236;2023-04-01T15:02:22;8.50;99.90
34768;DHT22;21755;43.608;1.236;2023-04-01T15:07:39;8.50;99.90
34768;DHT22;21755;43.608;1.236;2023-04-01T15:18:46;8.50;99.90
34768;DHT22;21755;43.608;1.236;2023-04-01T15:31:01;8.80;99.90
34768;DHT22;21755;43.608;1.236;2023-04-01T15:36:05;8.80;99.90
34768;DHT22;21755;43.608;1.236;2023-04-01T15:38:35;8.80;99.90
34768;DHT22;21755;43.608;1.236;2023-04-01T15:43:46;9.00;99.90
34768;DHT22;21755;43.608;1.236;2023-04-01T15:49:03;9.20;99.90
34768;DHT22;21755;43.608;1.236;2023-04-01T15:51:39;9.50;99.90
34768;DHT22;21755;43.608;1.236;2023-04-01T15:59:24;9.30;99.90
34768;DHT22;21755;43.608;1.236;2023-04-01T16:02:07;9.30;99.90
34768;DHT22;21755;43.608;1.236;2023-04-01T16:05:00;9.30;99.90
34768;DHT22;21755;43.608;1.236;2023-04-01T16:07:43;9.40;99.90
34768;DHT22;21755;43.608;1.236;2023-04-01T16:21:00;9.80;99.90
34768;DHT22;21755;43.608;1.236;2023-04-01T16:33:35;9.80;99.90
34768;DHT22;21755;43.608;1.236;2023-04-01T16:39:08;9.70;99.90
34768;DHT22;21755;43.608;1.236;2023-04-01T16:41:36;9.60;99.90
34768;DHT22;21755;43.608;1.236;2023-04-01T16:44:16;9.60;99.90
34768;DHT22;21755;43.608;1.236;2023-04-01T16:46:44;9.60;99.90
34768;DHT22;21755;43.608;1.236;2023-04-01T16:51:53;9.50;99.90
34768;DHT22;21755;43.608;1.236;2023-04-01T16:57:01;9.60;99.90
34768;DHT22;21755;43.608;1.236;2023-04-01T16:59:35;9.60;99.90
34768;DHT22;21755;43.608;1.236;2023-04-01T17:09:46;9.60;99.90
34768;DHT22;21755;43.608;1.236;2023-04-01T17:17:23;9.70;99.90
34768;DHT22;21755;43.608;1.236;2023-04-01T17:35:43;9.60;99.90
34768;DHT22;21755;43.608;1.236;2023-04-01T17:41:01;9.50;99.90
34768;DHT22;21755;43.608;1.236;2023-04-01T17:46:01;9.30;99.90
34768;DHT22;21755;43.608;1.236;2023-04-01T17:48:35;9.30;99.90
34768;DHT22;21755;43.608;1.236;2023-04-01T18:03:32;8.90;99.90
34768;DHT22;21755;43.608;1.236;2023-04-01T18:08:29;8.70;99.90
34768;DHT22;21755;43.608;1.236;2023-04-01T18:16:14;8.50;99.90
34768;DHT22;21755;43.608;1.236;2023-04-01T18:23:46;8.50;99.90
34768;DHT22;21755;43.608;1.236;2023-04-01T18:26:23;8.50;99.90
34768;DHT22;21755;43.608;1.236;2023-04-01T18:29:03;8.40;99.90
34768;DHT22;21755;43.608;1.236;2023-04-01T18:31:37;8.30;99.90
34768;DHT22;21755;43.608;1.236;2023-04-01T18:34:15;8.30;99.90
34768;DHT22;21755;43.608;1.236;2023-04-01T18:37:00;8.20;99.90
34768;DHT22;21755;43.608;1.236;2023-04-01T18:39:41;8.20;99.90
34768;DHT22;21755;43.608;1.236;2023-04-01T18:52:40;8.20;99.90
34768;DHT22;21755;43.608;1.236;2023-04-01T19:00:21;8.10;99.90
34768;DHT22;21755;43.608;1.236;2023-04-01T19:03:31;8.10;99.90
34768;DHT22;21755;43.608;1.236;2023-04-01T19:05:38;8.20;99.90
34768;DHT22;21755;43.608;1.236;2023-04-01T19:10:53;8.20;99.90
34768;DHT22;21755;43.608;1.236;2023-04-01T19:16:09;8.20;99.90
34768;DHT22;21755;43.608;1.236;2023-04-01T19:21:07;8.00;99.90
34768;DHT22;21755;43.608;1.236;2023-04-01T19:26:26;7.90;99.90
34768;DHT22;21755;43.608;1.236;2023-04-01T19:36:59;7.90;99.90
34768;DHT22;21755;43.608;1.236;2023-04-01T19:39:37;8.00;99.90
34768;DHT22;21755;43.608;1.236;2023-04-01T19:42:20;8.00;99.90
34768;DHT22;21755;43.608;1.236;2023-04-01T19:52:56;7.90;99.90
34768;DHT22;21755;43.608;1.236;2023-04-01T20:00:23;8.00;99.90
34768;DHT22;21755;43.608;1.236;2023-04-01T20:02:59;8.00;99.90
34768;DHT22;21755;43.608;1.236;2023-04-01T20:07:52;8.00;99.90
34768;DHT22;21755;43.608;1.236;2023-04-01T20:13:29;8.00;99.90
34768;DHT22;21755;43.608;1.236;2023-04-01T20:16:01;8.00;99.90
34768;DHT22;21755;43.608;1.236;2023-04-01T20:23:39;8.00;99.90
34768;DHT22;21755;43.608;1.236;2023-04-01T20:26:11;8.00;99.90
34768;DHT22;21755;43.608;1.236;2023-04-01T20:31:35;8.00;99.90
34768;DHT22;21755;43.608;1.236;2023-04-01T20:34:12;8.00;99.90
34768;DHT22;21755;43.608;1.236;2023-04-01T20:44:18;7.90;99.90
34768;DHT22;21755;43.608;1.236;2023-04-01T20:49:41;8.00;99.90
34768;DHT22;21755;43.608;1.236;2023-04-01T20:57:31;8.00;99.90
34768;DHT22;21755;43.608;1.236;2023-04-01T21:07:55;7.80;99.90
34768;DHT22;21755;43.608;1.236;2023-04-01T21:12:53;7.80;99.90
34768;DHT22;21755;43.608;1.236;2023-04-01T21:15:42;7.80;99.90
34768;DHT22;21755;43.608;1.236;2023-04-01T21:44:01;7.40;99.90
34768;DHT22;21755;43.608;1.236;2023-04-01T21:52:07;7.40;99.90
34768;DHT22;21755;43.608;1.236;2023-04-01T22:04:55;7.40;99.90
34768;DHT22;21755;43.608;1.236;2023-04-01T22:09:59;7.40;99.90
34768;DHT22;21755;43.608;1.236;2023-04-01T22:17:55;7.40;99.90
34768;DHT22;21755;43.608;1.236;2023-04-01T22:20:33;7.40;99.90
34768;DHT22;21755;43.608;1.236;2023-04-01T22:25:36;7.40;99.90
34768;DHT22;21755;43.608;1.236;2023-04-01T22:28:08;7.40;99.90
34768;DHT22;21755;43.608;1.236;2023-04-01T22:30:54;7.40;99.90
34768;DHT22;21755;43.608;1.236;2023-04-01T22:33:26;7.40;99.90
34768;DHT22;21755;43.608;1.236;2023-04-01T22:38:46;7.30;99.90
34768;DHT22;21755;43.608;1.236;2023-04-01T22:43:47;7.30;99.90
34768;DHT22;21755;43.608;1.236;2023-04-01T22:47:14;7.30;99.90
34768;DHT22;21755;43.608;1.236;2023-04-01T22:49:26;7.30;99.90
34768;DHT22;21755;43.608;1.236;2023-04-01T22:51:56;7.30;99.90
34768;DHT22;21755;43.608;1.236;2023-04-01T22:54:32;7.30;99.90
34768;DHT22;21755;43.608;1.236;2023-04-01T22:57:02;7.30;99.90
34768;DHT22;21755;43.608;1.236;2023-04-01T22:59:37;7.30;99.90
34768;DHT22;21755;43.608;1.236;2023-04-01T23:02:15;7.20;99.90
34768;DHT22;21755;43.608;1.236;2023-04-01T23:04:42;7.20;99.90
34768;DHT22;21755;43.608;1.236;2023-04-01T23:09:54;7.20;99.90
34768;DHT22;21755;43.608;1.236;2023-04-01T23:12:21;7.20;99.90
34768;DHT22;21755;43.608;1.236;2023-04-01T23:14:51;7.20;99.90
34768;DHT22;21755;43.608;1.236;2023-04-01T23:17:27;7.10;99.90
34768;DHT22;21755;43.608;1.236;2023-04-01T23:22:32;7.20;99.90
34768;DHT22;21755;43.608;1.236;2023-04-01T23:27:28;7.10;99.90
34768;DHT22;21755;43.608;1.236;2023-04-01T23:29:56;7.10;99.90
34768;DHT22;21755;43.608;1.236;2023-04-01T23:32:22;7.00;99.90
34768;DHT22;21755;43.608;1.236;2023-04-01T23:34:55;7.10;99.90
34768;DHT22;21755;43.608;1.236;2023-04-01T23:37:22;7.00;99.90
34768;DHT22;21755;43.608;1.236;2023-04-01T23:39:48;7.00;99.90
34768;DHT22;21755;43.608;1.236;2023-04-01T23:42:22;7.10;99.90
34768;DHT22;21755;43.608;1.236;2023-04-01T23:44:49;7.10;99.90
34768;DHT22;21755;43.608;1.236;2023-04-01T23:47:17;7.10;99.90
34768;DHT22;21755;43.608;1.236;2023-04-01T23:49:47;7.10;99.90
34768;DHT22;21755;43.608;1.236;2023-04-01T23:52:19;7.10;99.90
34768;DHT22;21755;43.608;1.236;2023-04-01T23:54:55;7.10;99.90
34768;DHT22;21755;43.608;1.236;2023-04-01T23:57:24;7.10;99.90
